N418RE PAFA-PAVE
Flight info
| Callsign | N418RE |
|---|---|
| Flight time | 0h 44m |
| Altitude | 14000 |
| Route | VENAE |
| Aircraft | C408/M-SDFGRY/S |
Departure
| Time | 2026-04-25 07:57 |
|---|---|
| Airport | Fairbanks International Airport (PAFA) |
Arrival
| Time | 2026-04-25 08:42 |
|---|---|
| Airport | Venetie Airport (PAVE) |
| Time | Latitude | Longitude | Altitude | Speed | Heading |
|---|---|---|---|---|---|
| 2026-04-25 07:45 | 64.80916 | -147.88049 | 440 ft | 0 kts | 116° |
| 2026-04-25 07:54 | 64.80893 | -147.88061 | 440 ft | 10 kts | 242° |
| 2026-04-25 07:54 | 64.80840 | -147.88153 | 434 ft | 6 kts | 148° |
| 2026-04-25 07:54 | 64.80806 | -147.88027 | 440 ft | 13 kts | 121° |
| 2026-04-25 07:55 | 64.80801 | -147.87875 | 439 ft | 12 kts | 79° |
| 2026-04-25 07:55 | 64.80788 | -147.87753 | 432 ft | 0 kts | 133° |
| 2026-04-25 07:55 | 64.80785 | -147.87743 | 437 ft | 4 kts | 133° |
| 2026-04-25 07:55 | 64.80764 | -147.87645 | 436 ft | 5 kts | 43° |
| 2026-04-25 07:56 | 64.80806 | -147.87598 | 433 ft | 10 kts | 40° |
| 2026-04-25 07:56 | 64.80815 | -147.87581 | 436 ft | 0 kts | 38° |
| 2026-04-25 07:56 | 64.80816 | -147.87580 | 436 ft | 3 kts | 38° |
| 2026-04-25 07:57 | 64.81050 | -147.87152 | 433 ft | 80 kts | 37° |
| 2026-04-25 07:57 | 64.81608 | -147.86142 | 712 ft | 111 kts | 35° |
| 2026-04-25 07:57 | 64.82318 | -147.85099 | 1133 ft | 129 kts | 28° |
| 2026-04-25 07:57 | 64.83140 | -147.84475 | 1738 ft | 127 kts | 351° |
| 2026-04-25 07:58 | 64.83936 | -147.85333 | 2310 ft | 128 kts | 340° |
| 2026-04-25 07:58 | 64.84808 | -147.85623 | 2906 ft | 127 kts | 6° |
| 2026-04-25 07:58 | 64.85659 | -147.85259 | 3571 ft | 120 kts | 11° |
| 2026-04-25 07:58 | 64.86463 | -147.84851 | 4207 ft | 117 kts | 13° |
| 2026-04-25 07:59 | 64.87242 | -147.84426 | 4797 ft | 116 kts | 14° |
| 2026-04-25 07:59 | 64.88025 | -147.83987 | 5356 ft | 117 kts | 14° |
| 2026-04-25 07:59 | 64.88824 | -147.83538 | 5892 ft | 119 kts | 14° |
| 2026-04-25 07:59 | 64.89729 | -147.83021 | 6059 ft | 155 kts | 14° |
| 2026-04-25 08:00 | 64.90882 | -147.82346 | 6068 ft | 184 kts | 13° |
| 2026-04-25 08:00 | 64.92178 | -147.81604 | 6061 ft | 198 kts | 13° |
| 2026-04-25 08:00 | 64.93544 | -147.80825 | 6052 ft | 204 kts | 13° |
| 2026-04-25 08:00 | 64.94927 | -147.80031 | 6040 ft | 206 kts | 13° |
| 2026-04-25 08:01 | 64.96328 | -147.79224 | 6038 ft | 206 kts | 13° |
| 2026-04-25 08:01 | 64.97720 | -147.78425 | 6037 ft | 206 kts | 13° |
| 2026-04-25 08:01 | 64.99114 | -147.77620 | 6036 ft | 207 kts | 13° |
| 2026-04-25 08:01 | 65.00510 | -147.76815 | 6037 ft | 206 kts | 13° |
| 2026-04-25 08:02 | 65.01887 | -147.76024 | 6038 ft | 206 kts | 13° |
| 2026-04-25 08:02 | 65.03282 | -147.75222 | 6038 ft | 206 kts | 13° |
| 2026-04-25 08:02 | 65.04677 | -147.74413 | 6038 ft | 206 kts | 13° |
| 2026-04-25 08:02 | 65.06072 | -147.73607 | 6038 ft | 207 kts | 13° |
| 2026-04-25 08:03 | 65.07472 | -147.72797 | 6038 ft | 207 kts | 13° |
| 2026-04-25 08:03 | 65.08874 | -147.71986 | 6039 ft | 207 kts | 13° |
| 2026-04-25 08:03 | 65.10275 | -147.71173 | 6039 ft | 208 kts | 13° |
| 2026-04-25 08:03 | 65.11677 | -147.70357 | 6039 ft | 207 kts | 13° |
| 2026-04-25 08:04 | 65.13080 | -147.69540 | 6040 ft | 207 kts | 13° |
| 2026-04-25 08:04 | 65.14482 | -147.68725 | 6041 ft | 207 kts | 13° |
| 2026-04-25 08:04 | 65.15885 | -147.67909 | 6040 ft | 207 kts | 13° |
| 2026-04-25 08:04 | 65.17269 | -147.67099 | 6039 ft | 207 kts | 13° |
| 2026-04-25 08:05 | 65.18670 | -147.66281 | 6040 ft | 207 kts | 13° |
| 2026-04-25 08:05 | 65.20071 | -147.65464 | 6039 ft | 207 kts | 13° |
| 2026-04-25 08:05 | 65.21468 | -147.64642 | 6039 ft | 207 kts | 13° |
| 2026-04-25 08:05 | 65.22864 | -147.63825 | 6040 ft | 207 kts | 13° |
| 2026-04-25 08:06 | 65.24268 | -147.63007 | 6040 ft | 207 kts | 13° |
| 2026-04-25 08:06 | 65.25671 | -147.62181 | 6041 ft | 207 kts | 13° |
| 2026-04-25 08:06 | 65.27074 | -147.61355 | 6040 ft | 208 kts | 13° |
| 2026-04-25 08:06 | 65.28476 | -147.60529 | 6035 ft | 207 kts | 13° |
| 2026-04-25 08:07 | 65.29877 | -147.59706 | 6034 ft | 207 kts | 13° |
| 2026-04-25 08:07 | 65.31258 | -147.58891 | 6034 ft | 207 kts | 13° |
| 2026-04-25 08:07 | 65.32657 | -147.58066 | 6034 ft | 207 kts | 13° |
| 2026-04-25 08:07 | 65.34056 | -147.57239 | 6034 ft | 207 kts | 13° |
| 2026-04-25 08:08 | 65.35458 | -147.56408 | 6034 ft | 207 kts | 13° |
| 2026-04-25 08:08 | 65.36858 | -147.55578 | 6035 ft | 207 kts | 13° |
| 2026-04-25 08:08 | 65.38261 | -147.54748 | 6034 ft | 207 kts | 13° |
| 2026-04-25 08:08 | 65.39662 | -147.53917 | 6034 ft | 207 kts | 13° |
| 2026-04-25 08:09 | 65.41062 | -147.53083 | 6035 ft | 207 kts | 13° |
| 2026-04-25 08:09 | 65.42459 | -147.52254 | 6034 ft | 207 kts | 13° |
| 2026-04-25 08:09 | 65.43860 | -147.51419 | 6033 ft | 207 kts | 13° |
| 2026-04-25 08:09 | 65.45259 | -147.50583 | 6034 ft | 207 kts | 13° |
| 2026-04-25 08:10 | 65.46653 | -147.49750 | 6034 ft | 207 kts | 13° |
| 2026-04-25 08:10 | 65.48052 | -147.48916 | 6033 ft | 207 kts | 13° |
| 2026-04-25 08:10 | 65.49451 | -147.48080 | 6034 ft | 207 kts | 13° |
| 2026-04-25 08:10 | 65.50851 | -147.47241 | 6034 ft | 207 kts | 13° |
| 2026-04-25 08:11 | 65.52250 | -147.46402 | 6035 ft | 207 kts | 13° |
| 2026-04-25 08:11 | 65.53650 | -147.45562 | 6034 ft | 207 kts | 13° |
| 2026-04-25 08:11 | 65.55040 | -147.44728 | 6106 ft | 204 kts | 13° |
| 2026-04-25 08:11 | 65.56330 | -147.43950 | 6654 ft | 182 kts | 13° |
| 2026-04-25 08:12 | 65.57481 | -147.43256 | 7432 ft | 159 kts | 12° |
| 2026-04-25 08:12 | 65.58524 | -147.42632 | 8014 ft | 160 kts | 12° |
| 2026-04-25 08:12 | 65.59705 | -147.41926 | 8040 ft | 188 kts | 12° |
| 2026-04-25 08:12 | 65.61031 | -147.41121 | 8046 ft | 203 kts | 13° |
| 2026-04-25 08:13 | 65.62424 | -147.40274 | 8046 ft | 209 kts | 13° |
| 2026-04-25 08:13 | 65.63848 | -147.39413 | 8047 ft | 212 kts | 13° |
| 2026-04-25 08:13 | 65.65286 | -147.38543 | 8048 ft | 213 kts | 13° |
| 2026-04-25 08:14 | 65.68158 | -147.36799 | 8056 ft | 213 kts | 13° |
| 2026-04-25 08:14 | 65.69598 | -147.35923 | 8053 ft | 213 kts | 13° |
| 2026-04-25 08:14 | 65.71039 | -147.35045 | 8046 ft | 214 kts | 13° |
| 2026-04-25 08:14 | 65.72477 | -147.34169 | 8046 ft | 213 kts | 13° |
| 2026-04-25 08:15 | 65.73896 | -147.33305 | 8045 ft | 213 kts | 13° |
| 2026-04-25 08:15 | 65.75332 | -147.32428 | 8047 ft | 213 kts | 13° |
| 2026-04-25 08:15 | 65.76769 | -147.31550 | 8043 ft | 213 kts | 13° |
| 2026-04-25 08:15 | 65.78204 | -147.30670 | 8041 ft | 212 kts | 13° |
| 2026-04-25 08:16 | 65.79639 | -147.29791 | 8042 ft | 211 kts | 13° |
| 2026-04-25 08:16 | 65.81061 | -147.28920 | 8038 ft | 210 kts | 13° |
| 2026-04-25 08:16 | 65.82480 | -147.28048 | 8040 ft | 210 kts | 13° |
| 2026-04-25 08:16 | 65.83420 | -147.27471 | 8039 ft | 210 kts | 13° |
| 2026-04-25 08:17 | 65.84829 | -147.26603 | 8038 ft | 208 kts | 13° |
| 2026-04-25 08:17 | 65.86243 | -147.25735 | 8046 ft | 211 kts | 13° |
| 2026-04-25 08:17 | 65.87656 | -147.24863 | 8047 ft | 207 kts | 13° |
| 2026-04-25 08:17 | 65.89044 | -147.24002 | 8045 ft | 205 kts | 13° |
| 2026-04-25 08:18 | 65.90417 | -147.23151 | 8047 ft | 203 kts | 13° |
| 2026-04-25 08:18 | 65.91792 | -147.22302 | 8049 ft | 203 kts | 13° |
| 2026-04-25 08:18 | 65.93164 | -147.21454 | 8048 ft | 203 kts | 13° |
| 2026-04-25 08:18 | 65.94535 | -147.20604 | 8049 ft | 203 kts | 13° |
| 2026-04-25 08:19 | 65.95906 | -147.19753 | 8048 ft | 203 kts | 13° |
| 2026-04-25 08:19 | 65.97257 | -147.18914 | 8046 ft | 203 kts | 13° |
| 2026-04-25 08:19 | 65.98625 | -147.18063 | 8059 ft | 204 kts | 13° |
| 2026-04-25 08:19 | 65.99998 | -147.17219 | 8063 ft | 204 kts | 13° |
| 2026-04-25 08:20 | 66.01371 | -147.16346 | 8062 ft | 203 kts | 13° |
| 2026-04-25 08:20 | 66.02745 | -147.15489 | 8062 ft | 204 kts | 13° |
| 2026-04-25 08:20 | 66.04112 | -147.14638 | 8063 ft | 202 kts | 13° |
| 2026-04-25 08:20 | 66.05471 | -147.13786 | 8062 ft | 202 kts | 13° |
| 2026-04-25 08:21 | 66.06833 | -147.12936 | 8059 ft | 202 kts | 13° |
| 2026-04-25 08:21 | 66.08189 | -147.12079 | 8060 ft | 202 kts | 13° |
| 2026-04-25 08:21 | 66.09544 | -147.11230 | 8056 ft | 201 kts | 13° |
| 2026-04-25 08:21 | 66.10896 | -147.10383 | 8067 ft | 200 kts | 13° |
| 2026-04-25 08:22 | 66.12250 | -147.09543 | 8067 ft | 202 kts | 13° |
| 2026-04-25 08:22 | 66.13607 | -147.08684 | 8077 ft | 201 kts | 13° |
| 2026-04-25 08:22 | 66.14969 | -147.07822 | 8077 ft | 202 kts | 13° |
| 2026-04-25 08:22 | 66.16334 | -147.06958 | 8078 ft | 203 kts | 13° |
| 2026-04-25 08:23 | 66.17700 | -147.06094 | 8078 ft | 203 kts | 13° |
| 2026-04-25 08:23 | 66.19068 | -147.05228 | 8079 ft | 203 kts | 13° |
| 2026-04-25 08:23 | 66.20434 | -147.04366 | 8079 ft | 203 kts | 13° |
| 2026-04-25 08:23 | 66.21801 | -147.03496 | 8087 ft | 203 kts | 13° |
| 2026-04-25 08:24 | 66.23151 | -147.02640 | 8087 ft | 203 kts | 13° |
| 2026-04-25 08:24 | 66.24520 | -147.01771 | 8086 ft | 203 kts | 13° |
| 2026-04-25 08:24 | 66.25889 | -147.00899 | 8087 ft | 203 kts | 13° |
| 2026-04-25 08:24 | 66.27257 | -147.00029 | 8087 ft | 203 kts | 13° |
| 2026-04-25 08:25 | 66.28626 | -146.99154 | 8087 ft | 203 kts | 13° |
| 2026-04-25 08:25 | 66.29992 | -146.98285 | 8087 ft | 203 kts | 13° |
| 2026-04-25 08:25 | 66.31359 | -146.97409 | 8087 ft | 203 kts | 13° |
| 2026-04-25 08:25 | 66.32713 | -146.96544 | 8088 ft | 203 kts | 13° |
| 2026-04-25 08:26 | 66.34082 | -146.95665 | 8088 ft | 203 kts | 13° |
| 2026-04-25 08:26 | 66.35451 | -146.94787 | 8088 ft | 203 kts | 13° |
| 2026-04-25 08:26 | 66.36819 | -146.93910 | 8088 ft | 203 kts | 13° |
| 2026-04-25 08:26 | 66.38188 | -146.93032 | 8087 ft | 203 kts | 13° |
| 2026-04-25 08:27 | 66.39583 | -146.92136 | 7838 ft | 212 kts | 13° |
| 2026-04-25 08:27 | 66.41033 | -146.91202 | 7492 ft | 216 kts | 13° |
| 2026-04-25 08:27 | 66.42486 | -146.90265 | 7153 ft | 216 kts | 13° |
| 2026-04-25 08:27 | 66.43937 | -146.89325 | 6809 ft | 215 kts | 13° |
| 2026-04-25 08:28 | 66.45381 | -146.88394 | 6455 ft | 214 kts | 14° |
| 2026-04-25 08:28 | 66.46820 | -146.87462 | 6112 ft | 213 kts | 13° |
| 2026-04-25 08:28 | 66.48232 | -146.86546 | 5765 ft | 212 kts | 14° |
| 2026-04-25 08:28 | 66.49645 | -146.85631 | 5405 ft | 209 kts | 14° |
| 2026-04-25 08:29 | 66.51051 | -146.84711 | 5113 ft | 207 kts | 14° |
| 2026-04-25 08:29 | 66.52410 | -146.83831 | 5102 ft | 197 kts | 14° |
| 2026-04-25 08:29 | 66.53729 | -146.82975 | 5096 ft | 194 kts | 14° |
| 2026-04-25 08:29 | 66.55033 | -146.82124 | 5091 ft | 194 kts | 14° |
| 2026-04-25 08:30 | 66.56335 | -146.81281 | 5093 ft | 193 kts | 14° |
| 2026-04-25 08:30 | 66.57635 | -146.80429 | 5094 ft | 193 kts | 14° |
| 2026-04-25 08:30 | 66.58932 | -146.79576 | 5093 ft | 193 kts | 14° |
| 2026-04-25 08:30 | 66.60231 | -146.78726 | 5094 ft | 193 kts | 14° |
| 2026-04-25 08:31 | 66.61528 | -146.77878 | 5093 ft | 193 kts | 14° |
| 2026-04-25 08:31 | 66.62838 | -146.77019 | 4956 ft | 198 kts | 14° |
| 2026-04-25 08:31 | 66.64188 | -146.76131 | 4712 ft | 201 kts | 14° |
| 2026-04-25 08:31 | 66.65542 | -146.75240 | 4468 ft | 201 kts | 14° |
| 2026-04-25 08:32 | 66.66879 | -146.74363 | 4226 ft | 201 kts | 15° |
| 2026-04-25 08:32 | 66.68230 | -146.73470 | 3974 ft | 200 kts | 14° |
| 2026-04-25 08:32 | 66.69579 | -146.72582 | 3726 ft | 200 kts | 14° |
| 2026-04-25 08:32 | 66.70922 | -146.71697 | 3475 ft | 199 kts | 14° |
| 2026-04-25 08:33 | 66.72256 | -146.70814 | 3226 ft | 198 kts | 15° |
| 2026-04-25 08:33 | 66.73576 | -146.69938 | 3107 ft | 192 kts | 15° |
| 2026-04-25 08:33 | 66.74857 | -146.69090 | 3102 ft | 188 kts | 15° |
| 2026-04-25 08:33 | 66.76116 | -146.68254 | 3098 ft | 187 kts | 15° |
| 2026-04-25 08:34 | 66.77374 | -146.67422 | 3096 ft | 186 kts | 15° |
| 2026-04-25 08:34 | 66.78628 | -146.66588 | 3095 ft | 187 kts | 15° |
| 2026-04-25 08:34 | 66.79882 | -146.65754 | 3093 ft | 186 kts | 15° |
| 2026-04-25 08:34 | 66.81138 | -146.64918 | 3094 ft | 186 kts | 15° |
| 2026-04-25 08:35 | 66.82379 | -146.64087 | 3094 ft | 185 kts | 15° |
| 2026-04-25 08:35 | 66.83528 | -146.62671 | 3095 ft | 184 kts | 31° |
| 2026-04-25 08:35 | 66.84646 | -146.61054 | 3096 ft | 185 kts | 29° |
| 2026-04-25 08:35 | 66.85776 | -146.59456 | 3098 ft | 186 kts | 29° |
| 2026-04-25 08:36 | 66.86907 | -146.57840 | 3099 ft | 186 kts | 30° |
| 2026-04-25 08:36 | 66.88034 | -146.56219 | 3098 ft | 186 kts | 30° |
| 2026-04-25 08:36 | 66.89157 | -146.54605 | 3099 ft | 186 kts | 30° |
| 2026-04-25 08:36 | 66.90284 | -146.52992 | 3099 ft | 186 kts | 30° |
| 2026-04-25 08:37 | 66.91408 | -146.51372 | 3097 ft | 185 kts | 30° |
| 2026-04-25 08:37 | 66.92529 | -146.49760 | 3097 ft | 185 kts | 30° |
| 2026-04-25 08:37 | 66.93653 | -146.48139 | 3097 ft | 186 kts | 30° |
| 2026-04-25 08:37 | 66.94777 | -146.46516 | 3099 ft | 186 kts | 30° |
| 2026-04-25 08:38 | 66.95905 | -146.44889 | 3098 ft | 186 kts | 30° |
| 2026-04-25 08:38 | 66.97030 | -146.43263 | 3098 ft | 186 kts | 30° |
| 2026-04-25 08:38 | 66.98151 | -146.41638 | 3098 ft | 186 kts | 30° |
| 2026-04-25 08:38 | 66.99279 | -146.40005 | 3098 ft | 186 kts | 30° |
| 2026-04-25 08:39 | 67.00406 | -146.38371 | 3098 ft | 186 kts | 30° |
| 2026-04-25 08:39 | 67.01530 | -146.36736 | 3100 ft | 186 kts | 30° |
| 2026-04-25 08:39 | 67.02709 | -146.35652 | 3063 ft | 186 kts | 360° |
| 2026-04-25 08:39 | 67.03704 | -146.36942 | 2882 ft | 145 kts | 306° |
| 2026-04-25 08:40 | 67.03878 | -146.39275 | 2451 ft | 128 kts | 250° |
| 2026-04-25 08:40 | 67.03368 | -146.40829 | 2089 ft | 111 kts | 215° |
| 2026-04-25 08:40 | 67.02663 | -146.41667 | 1830 ft | 120 kts | 199° |
| 2026-04-25 08:40 | 67.01852 | -146.42316 | 1730 ft | 124 kts | 195° |
| 2026-04-25 08:41 | 67.01051 | -146.42657 | 1561 ft | 107 kts | 169° |
| 2026-04-25 08:41 | 67.00429 | -146.41696 | 1146 ft | 106 kts | 124° |
| 2026-04-25 08:41 | 67.00257 | -146.39943 | 851 ft | 100 kts | 84° |
| 2026-04-25 08:41 | 67.00510 | -146.38329 | 619 ft | 94 kts | 62° |
| 2026-04-25 08:42 | 67.00764 | -146.37111 | 577 ft | 54 kts | 62° |
| 2026-04-25 08:42 | 67.00826 | -146.36809 | 578 ft | 8 kts | 130° |
| 2026-04-25 08:42 | 67.00790 | -146.36866 | 578 ft | 17 kts | 255° |
| 2026-04-25 08:42 | 67.00668 | -146.37410 | 579 ft | 46 kts | 237° |
| 2026-04-25 08:43 | 67.00635 | -146.37895 | 580 ft | 18 kts | 311° |
| 2026-04-25 08:43 | 67.00753 | -146.37963 | 579 ft | 17 kts | 18° |
| 2026-04-25 08:43 | 67.00807 | -146.37918 | 579 ft | 0 kts | 321° |
| 2026-04-25 08:43 | 67.00807 | -146.37919 | 579 ft | 0 kts | 321° |